createdAt,value
2023-02-24T00:02:01.809Z,51.03
2023-02-24T00:04:41.737Z,51.55
2023-02-24T00:07:13.029Z,51.40
2023-02-24T00:09:39.796Z,51.92
2023-02-24T00:12:12.894Z,51.77
2023-02-24T00:14:42.221Z,52.05
2023-02-24T00:17:09.679Z,52.09
2023-02-24T00:19:37.367Z,51.64
2023-02-24T00:22:05.514Z,51.32
2023-02-24T00:24:31.980Z,51.32
2023-02-24T00:27:01.380Z,51.48
2023-02-24T00:29:29.896Z,51.62
2023-02-24T00:32:00.933Z,51.66
2023-02-24T00:34:29.637Z,51.50
2023-02-24T00:36:56.142Z,51.37
2023-02-24T00:39:30.390Z,51.45
2023-02-24T00:42:06.506Z,51.80
2023-02-24T00:44:44.742Z,50.82
2023-02-24T00:47:12.397Z,50.89
2023-02-24T00:49:42.175Z,50.59
2023-02-24T00:52:16.322Z,50.92
2023-02-24T00:54:45.133Z,51.58
2023-02-24T00:57:12.464Z,51.20
2023-02-24T00:59:39.269Z,50.82
2023-02-24T01:02:07.149Z,51.26
2023-02-24T01:04:33.985Z,51.54
2023-02-24T01:07:01.900Z,51.44
2023-02-24T01:09:30.829Z,51.52
2023-02-24T01:12:16.746Z,50.91
2023-02-24T01:14:47.698Z,51.07
2023-02-24T01:17:16.219Z,51.67
2023-02-24T01:19:44.252Z,51.56
2023-02-24T01:22:14.932Z,51.75
2023-02-24T01:24:43.441Z,51.57
2023-02-24T01:27:12.565Z,52.01
2023-02-24T01:29:39.689Z,51.62
2023-02-24T01:32:07.928Z,51.72
2023-02-24T01:34:35.184Z,51.55
2023-02-24T01:37:01.867Z,51.63
2023-02-24T01:39:28.512Z,51.97
2023-02-24T01:41:54.904Z,51.45
2023-02-24T01:44:25.280Z,51.77
2023-02-24T01:46:53.155Z,51.73
2023-02-24T01:49:29.593Z,51.67
2023-02-24T01:52:02.219Z,51.87
2023-02-24T01:54:33.706Z,51.93
2023-02-24T01:57:00.546Z,51.44
2023-02-24T01:59:30.390Z,51.44
2023-02-24T02:02:07.022Z,51.50
2023-02-24T02:04:42.883Z,51.29
2023-02-24T02:07:12.749Z,51.47
2023-02-24T02:09:42.287Z,51.22
2023-02-24T02:12:11.960Z,51.77
2023-02-24T02:14:43.861Z,51.42
2023-02-24T02:17:21.540Z,51.61
2023-02-24T02:20:16.228Z,51.78
2023-02-24T02:23:13.771Z,51.44
2023-02-24T02:26:18.808Z,51.16
2023-02-24T02:29:07.411Z,51.30
2023-02-24T02:31:46.640Z,51.03
2023-02-24T02:34:19.360Z,50.98
2023-02-24T02:37:15.182Z,51.38
2023-02-24T02:40:00.914Z,50.65
2023-02-24T02:42:38.148Z,51.01
2023-02-24T02:45:08.446Z,50.76
2023-02-24T02:47:47.136Z,50.91
2023-02-24T02:50:37.358Z,51.18
2023-02-24T02:53:12.079Z,51.08
2023-02-24T02:55:49.097Z,51.38
2023-02-24T02:58:23.459Z,51.44
2023-02-24T03:01:02.863Z,51.77
2023-02-24T03:03:33.710Z,51.28
2023-02-24T03:06:06.591Z,51.42
2023-02-24T03:08:38.637Z,51.20
2023-02-24T03:11:09.810Z,51.31
2023-02-24T03:13:41.158Z,51.25
2023-02-24T03:16:10.554Z,50.95
2023-02-24T03:18:44.898Z,51.57
2023-02-24T03:21:24.493Z,51.74
2023-02-24T03:23:52.482Z,51.41
2023-02-24T03:26:33.322Z,51.04
2023-02-24T03:29:23.956Z,51.51
2023-02-24T03:32:09.400Z,51.26
2023-02-24T03:35:07.310Z,50.96
2023-02-24T03:37:34.098Z,51.04
2023-02-24T03:40:14.777Z,50.95
2023-02-24T03:42:45.421Z,50.89
2023-02-24T03:45:12.550Z,51.04
2023-02-24T03:47:40.599Z,50.88
2023-02-24T03:50:13.833Z,50.54
2023-02-24T03:53:08.810Z,50.73
2023-02-24T03:55:39.441Z,50.43
2023-02-24T03:58:18.238Z,50.60
2023-02-24T04:00:52.825Z,50.45
2023-02-24T04:03:38.666Z,50.47
2023-02-24T04:06:28.188Z,50.57
2023-02-24T04:09:18.696Z,50.40
2023-02-24T04:11:56.307Z,50.66
2023-02-24T04:14:30.921Z,50.72
2023-02-24T04:17:08.894Z,50.82
2023-02-24T04:19:40.511Z,50.98
2023-02-24T04:22:10.756Z,50.73
2023-02-24T04:24:39.690Z,50.89
2023-02-24T04:27:08.192Z,50.77
2023-02-24T04:29:39.553Z,50.16
2023-02-24T04:32:08.959Z,50.59
2023-02-24T04:37:23.036Z,50.76
2023-02-24T04:39:53.315Z,50.56
2023-02-24T04:42:22.453Z,50.92
2023-02-24T04:44:48.834Z,50.79
2023-02-24T04:47:15.694Z,50.53
2023-02-24T04:49:42.076Z,50.71
2023-02-24T04:52:12.007Z,50.68
2023-02-24T04:54:38.596Z,50.51
2023-02-24T04:57:11.554Z,50.69
2023-02-24T04:59:39.103Z,50.59
2023-02-24T05:02:09.324Z,50.30
2023-02-24T05:04:38.777Z,50.28
2023-02-24T05:07:06.473Z,50.52
2023-02-24T05:09:33.372Z,50.14
2023-02-24T05:12:00.294Z,50.18
2023-02-24T05:14:26.702Z,49.80
2023-02-24T05:16:53.165Z,50.06
2023-02-24T05:19:39.934Z,49.97
2023-02-24T05:22:13.108Z,50.37
2023-02-24T05:24:41.019Z,50.37
2023-02-24T05:27:08.611Z,49.91
2023-02-24T05:29:42.318Z,49.53
2023-02-24T05:32:09.277Z,49.78
2023-02-24T05:34:35.897Z,49.66
2023-02-24T05:37:10.192Z,49.53
2023-02-24T05:39:38.346Z,49.93
2023-02-24T05:42:06.845Z,49.71
2023-02-24T05:44:35.383Z,49.69
2023-02-24T05:47:05.790Z,49.52
2023-02-24T05:49:34.805Z,49.83
2023-02-24T05:52:09.813Z,49.49
2023-02-24T05:54:42.098Z,49.42
2023-02-24T05:57:15.238Z,49.54
2023-02-24T05:59:42.405Z,50.20
2023-02-24T06:02:16.024Z,49.79
2023-02-24T06:05:11.699Z,49.84
2023-02-24T06:07:38.054Z,49.38
2023-02-24T06:10:15.939Z,50.04
2023-02-24T06:12:42.267Z,49.64
2023-02-24T06:15:09.070Z,49.54
2023-02-24T06:17:35.528Z,49.43
2023-02-24T06:20:02.851Z,49.61
2023-02-24T06:22:29.534Z,49.54
2023-02-24T06:24:56.734Z,49.53
2023-02-24T06:27:24.552Z,49.03
2023-02-24T06:29:54.123Z,48.95
2023-02-24T06:32:24.080Z,49.17
2023-02-24T06:34:51.860Z,48.65
2023-02-24T06:37:18.594Z,49.08
2023-02-24T06:39:53.991Z,48.62
2023-02-24T06:42:20.410Z,48.96
2023-02-24T06:44:46.990Z,48.68
2023-02-24T06:47:16.263Z,48.80
2023-02-24T06:49:42.763Z,48.71
2023-02-24T06:52:11.150Z,48.65
2023-02-24T06:54:37.736Z,48.97
2023-02-24T06:57:04.714Z,48.59
2023-02-24T06:59:32.298Z,48.90
2023-02-24T07:02:01.733Z,48.83
2023-02-24T07:04:29.113Z,48.91
2023-02-24T07:06:58.451Z,48.54
2023-02-24T07:09:26.624Z,48.58
2023-02-24T07:11:56.313Z,48.59
2023-02-24T07:14:25.459Z,48.47
2023-02-24T07:16:54.361Z,48.85
2023-02-24T07:19:24.215Z,48.62
2023-02-24T07:21:52.512Z,48.93
2023-02-24T07:24:24.972Z,48.50
2023-02-24T07:26:59.896Z,47.85
2023-02-24T07:29:28.204Z,48.39
2023-02-24T07:31:55.222Z,48.47
2023-02-24T07:34:25.355Z,48.24
2023-02-24T07:36:53.036Z,48.38
2023-02-24T07:39:20.590Z,48.28
2023-02-24T07:41:49.737Z,48.27
2023-02-24T07:44:21.337Z,48.03
2023-02-24T07:46:49.203Z,48.22
2023-02-24T07:49:25.813Z,47.42
2023-02-24T07:51:57.734Z,47.95
2023-02-24T07:54:27.258Z,47.93
2023-02-24T07:56:57.156Z,47.78
2023-02-24T07:59:29.848Z,47.50
2023-02-24T08:01:57.838Z,47.80
2023-02-24T08:04:30.055Z,47.17
2023-02-24T08:06:59.210Z,47.77
2023-02-24T08:09:44.636Z,48.09
2023-02-24T08:12:18.240Z,47.84
2023-02-24T08:14:50.760Z,47.67
2023-02-24T08:17:24.213Z,47.20
2023-02-24T08:20:15.472Z,47.42
2023-02-24T08:22:52.042Z,47.52
2023-02-24T08:25:22.705Z,47.47
2023-02-24T08:28:12.510Z,46.85
2023-02-24T08:30:44.903Z,47.00
2023-02-24T08:33:17.690Z,46.97
2023-02-24T08:35:45.466Z,46.61
2023-02-24T08:38:20.755Z,46.41
2023-02-24T08:40:50.678Z,46.67
2023-02-24T08:43:39.733Z,46.04
2023-02-24T08:46:18.389Z,46.05
2023-02-24T08:48:56.817Z,46.69
2023-02-24T08:51:35.171Z,45.57
2023-02-24T08:54:11.329Z,46.21
2023-02-24T08:56:43.445Z,46.59
2023-02-24T08:59:29.418Z,46.29
2023-02-24T09:02:18.029Z,46.40
2023-02-24T09:04:58.851Z,45.32
2023-02-24T09:07:36.535Z,45.72
2023-02-24T09:10:11.436Z,46.21
2023-02-24T09:12:41.176Z,46.67
2023-02-24T09:15:26.048Z,45.43
2023-02-24T09:18:08.083Z,45.63
2023-02-24T09:20:53.112Z,46.16
2023-02-24T09:23:20.581Z,46.05
2023-02-24T09:25:51.940Z,46.05
2023-02-24T09:28:24.440Z,45.50
2023-02-24T09:30:56.746Z,45.63
2023-02-24T09:33:54.736Z,44.72
2023-02-24T09:36:44.745Z,45.95
2023-02-24T09:39:14.526Z,45.68
2023-02-24T09:42:06.956Z,45.44
2023-02-24T09:44:44.577Z,44.56
2023-02-24T09:47:19.898Z,44.50
2023-02-24T09:49:56.182Z,45.07
2023-02-24T09:52:40.288Z,44.68
2023-02-24T09:56:05.485Z,43.95
2023-02-24T09:58:43.008Z,45.61
2023-02-24T10:01:33.747Z,44.43
2023-02-24T10:04:22.983Z,44.72
2023-02-24T10:06:57.621Z,44.62
2023-02-24T10:09:35.081Z,44.82
2023-02-24T10:12:20.388Z,44.49
2023-02-24T10:15:19.585Z,45.07
2023-02-24T10:17:55.648Z,44.40
2023-02-24T10:20:40.253Z,45.08
2023-02-24T10:23:29.566Z,45.05
2023-02-24T10:26:07.474Z,45.22
2023-02-24T10:28:57.162Z,45.49
2023-02-24T10:31:58.257Z,45.51
2023-02-24T10:34:31.696Z,45.85
2023-02-24T10:37:07.702Z,46.21
2023-02-24T10:39:36.527Z,46.35
2023-02-24T10:42:21.991Z,46.64
2023-02-24T10:45:02.692Z,46.60
2023-02-24T10:47:31.137Z,46.68
2023-02-24T10:50:00.937Z,46.95
2023-02-24T10:52:50.693Z,47.02
2023-02-24T10:55:45.721Z,46.81
2023-02-24T10:58:46.809Z,47.05
2023-02-24T11:01:40.789Z,47.30
2023-02-24T11:04:33.439Z,47.19
2023-02-24T11:07:12.267Z,47.53
2023-02-24T11:09:54.147Z,47.75
2023-02-24T11:12:42.106Z,47.76
2023-02-24T11:15:53.721Z,47.19
2023-02-24T11:18:23.946Z,47.81
2023-02-24T11:20:59.367Z,47.28
2023-02-24T11:23:43.816Z,47.52
2023-02-24T11:26:41.233Z,47.62
2023-02-24T11:29:26.122Z,47.65
2023-02-24T11:32:22.064Z,47.89
2023-02-24T11:34:52.985Z,47.69
2023-02-24T11:37:28.422Z,48.46
2023-02-24T11:40:18.657Z,48.63
2023-02-24T11:43:14.020Z,48.28
2023-02-24T11:45:46.257Z,48.52
2023-02-24T11:48:19.502Z,48.02
2023-02-24T11:50:50.516Z,48.42
2023-02-24T11:53:41.764Z,48.13
2023-02-24T11:56:18.130Z,48.42
2023-02-24T11:59:12.938Z,48.77
2023-02-24T12:02:05.530Z,48.75
2023-02-24T12:04:41.012Z,48.28
2023-02-24T12:07:32.987Z,48.99
2023-02-24T12:10:16.185Z,48.72
2023-02-24T12:16:05.173Z,49.22
2023-02-24T12:18:39.280Z,49.36
2023-02-24T12:21:24.828Z,49.20
2023-02-24T12:23:55.955Z,48.93
2023-02-24T12:26:42.478Z,48.96
2023-02-24T12:29:32.792Z,48.86
2023-02-24T12:33:00.996Z,49.16
2023-02-24T12:35:44.505Z,49.21
2023-02-24T12:38:51.983Z,49.12
2023-02-24T12:41:51.003Z,49.29
2023-02-24T12:44:26.518Z,49.17
2023-02-24T12:47:31.419Z,49.04
2023-02-24T12:50:09.826Z,49.80
2023-02-24T12:52:39.545Z,49.73
2023-02-24T12:55:48.349Z,50.11
2023-02-24T12:58:34.746Z,50.33
2023-02-24T13:01:07.196Z,49.89
2023-02-24T13:03:57.954Z,50.00
2023-02-24T13:07:15.508Z,50.01
2023-02-24T13:10:06.168Z,49.91
2023-02-24T13:12:42.913Z,49.69
2023-02-24T13:15:31.277Z,49.82
2023-02-24T13:17:58.536Z,50.06
2023-02-24T13:20:34.341Z,49.91
2023-02-24T13:23:05.755Z,49.77
2023-02-24T13:25:38.407Z,50.19
2023-02-24T13:28:21.328Z,49.81
2023-02-24T13:31:10.430Z,50.30
2023-02-24T13:33:42.524Z,50.29
2023-02-24T13:36:17.432Z,50.41
2023-02-24T13:38:46.748Z,49.65
2023-02-24T13:41:28.185Z,50.56
2023-02-24T13:44:00.373Z,50.13
2023-02-24T13:46:30.508Z,50.54
2023-02-24T13:49:15.674Z,50.35
2023-02-24T13:52:03.374Z,50.36
2023-02-24T13:55:05.201Z,51.10
2023-02-24T13:57:45.734Z,50.95
2023-02-24T14:00:30.214Z,50.87
2023-02-24T14:02:57.424Z,50.61
2023-02-24T14:05:28.318Z,50.33
2023-02-24T14:07:56.363Z,50.40
2023-02-24T14:10:29.962Z,50.80
2023-02-24T14:13:17.605Z,50.89
2023-02-24T14:15:46.325Z,50.22
2023-02-24T14:18:19.400Z,50.73
2023-02-24T14:20:45.805Z,50.90
2023-02-24T14:23:20.540Z,51.57
2023-02-24T14:25:46.873Z,50.47
2023-02-24T14:28:22.236Z,51.76
2023-02-24T14:30:55.598Z,51.83
2023-02-24T14:33:35.354Z,51.73
2023-02-24T14:36:04.018Z,51.04
2023-02-24T14:39:02.331Z,52.12
2023-02-24T14:41:28.686Z,51.01
2023-02-24T14:43:56.319Z,51.40
2023-02-24T14:46:25.179Z,51.17
2023-02-24T14:48:54.438Z,51.64
2023-02-24T14:51:28.476Z,51.88
2023-02-24T14:54:01.596Z,51.67
2023-02-24T14:56:32.118Z,52.07
2023-02-24T14:59:06.081Z,51.64
2023-02-24T15:01:40.866Z,51.95
2023-02-24T15:04:14.504Z,52.47
2023-02-24T15:06:43.721Z,52.04
2023-02-24T15:09:21.006Z,52.31
2023-02-24T15:11:49.029Z,51.75
2023-02-24T15:14:23.012Z,51.97
2023-02-24T15:16:54.089Z,52.19
2023-02-24T15:19:26.256Z,52.45
2023-02-24T15:21:54.009Z,51.91
2023-02-24T15:24:33.303Z,52.42
2023-02-24T15:27:02.644Z,51.96
2023-02-24T15:29:31.619Z,52.03
2023-02-24T15:32:01.153Z,52.13
2023-02-24T15:34:35.016Z,52.27
2023-02-24T15:37:12.776Z,51.94
2023-02-24T15:39:42.359Z,52.30
2023-02-24T15:42:17.221Z,52.15
2023-02-24T15:44:58.439Z,52.50
2023-02-24T15:47:28.659Z,52.07
2023-02-24T15:49:55.400Z,51.99
2023-02-24T15:52:24.416Z,52.03
2023-02-24T15:54:51.439Z,52.07
2023-02-24T15:57:18.569Z,51.98
2023-02-24T15:59:45.039Z,52.01
2023-02-24T16:02:22.226Z,52.62
2023-02-24T16:04:50.380Z,52.32
2023-02-24T16:07:20.807Z,52.42
2023-02-24T16:09:50.329Z,52.06
2023-02-24T16:12:21.775Z,52.50
2023-02-24T16:14:55.966Z,52.32
2023-02-24T16:17:31.755Z,52.51
2023-02-24T16:19:59.121Z,52.19
2023-02-24T16:22:26.556Z,52.41
2023-02-24T16:24:53.125Z,52.28
2023-02-24T16:27:22.078Z,52.24
2023-02-24T16:29:49.644Z,51.85
2023-02-24T16:32:16.464Z,52.13
2023-02-24T16:34:44.377Z,52.45
2023-02-24T16:37:23.292Z,52.74
2023-02-24T16:39:50.117Z,52.40
2023-02-24T16:42:17.485Z,52.64
2023-02-24T16:44:44.134Z,52.41
2023-02-24T16:47:17.341Z,52.59
2023-02-24T16:49:44.104Z,52.24
2023-02-24T16:52:13.538Z,52.26
2023-02-24T16:54:40.338Z,52.04
2023-02-24T16:57:06.943Z,52.10
2023-02-24T16:59:33.539Z,52.09
2023-02-24T17:02:02.091Z,52.13
2023-02-24T17:04:29.051Z,52.57
2023-02-24T17:06:55.367Z,51.97
2023-02-24T17:09:22.288Z,51.88
2023-02-24T17:11:48.660Z,51.75
2023-02-24T17:14:20.164Z,52.29
2023-02-24T17:16:47.067Z,51.87
2023-02-24T17:19:14.086Z,52.31
2023-02-24T17:21:44.544Z,52.19
2023-02-24T17:24:18.988Z,52.27
2023-02-24T17:26:46.264Z,52.03
2023-02-24T17:29:13.777Z,51.95
2023-02-24T17:31:40.744Z,52.28
2023-02-24T17:34:07.522Z,52.52
2023-02-24T17:36:34.019Z,52.14
2023-02-24T17:39:01.141Z,52.27
2023-02-24T17:41:27.723Z,52.21
2023-02-24T17:43:54.596Z,52.63
2023-02-24T17:46:21.923Z,52.21
2023-02-24T17:48:48.537Z,52.30
2023-02-24T17:51:20.299Z,52.62
2023-02-24T17:53:46.694Z,52.27
2023-02-24T17:56:13.058Z,52.12
2023-02-24T17:58:40.559Z,52.19
2023-02-24T18:01:06.994Z,52.13
2023-02-24T18:03:35.418Z,52.35
2023-02-24T18:06:09.846Z,52.62
2023-02-24T18:08:37.617Z,52.71
2023-02-24T18:11:05.541Z,52.55
2023-02-24T18:13:32.734Z,52.12
2023-02-24T18:15:59.932Z,52.36
2023-02-24T18:18:30.056Z,52.56
2023-02-24T18:21:01.775Z,52.33
2023-02-24T18:23:29.122Z,52.17
2023-02-24T18:25:55.702Z,52.51
2023-02-24T18:28:22.053Z,52.30
2023-02-24T18:30:48.765Z,52.08
2023-02-24T18:33:15.574Z,52.27
2023-02-24T18:35:42.240Z,52.03
2023-02-24T18:38:08.895Z,52.01
2023-02-24T18:40:35.215Z,52.16
2023-02-24T18:43:01.804Z,51.41
2023-02-24T18:45:29.022Z,50.91
2023-02-24T18:47:55.405Z,51.29
2023-02-24T18:50:25.386Z,51.07
2023-02-24T18:52:52.005Z,50.77
2023-02-24T18:55:19.759Z,51.51
2023-02-24T18:57:46.992Z,51.34
2023-02-24T19:00:14.606Z,51.41
2023-02-24T19:02:41.219Z,52.13
2023-02-24T19:05:08.245Z,51.79
2023-02-24T19:07:34.586Z,51.75
2023-02-24T19:10:00.919Z,51.76
2023-02-24T19:12:27.341Z,51.80
2023-02-24T19:14:53.899Z,51.94
2023-02-24T19:17:20.355Z,52.24
2023-02-24T19:19:46.806Z,51.77
2023-02-24T19:22:13.145Z,51.67
2023-02-24T19:24:39.558Z,51.92
2023-02-24T19:27:05.943Z,51.66
2023-02-24T19:29:32.234Z,51.49
2023-02-24T19:31:59.020Z,51.68
2023-02-24T19:34:25.524Z,51.59
2023-02-24T19:36:51.916Z,51.61
2023-02-24T19:39:18.442Z,51.71
2023-02-24T19:41:45.170Z,51.83
2023-02-24T19:44:11.992Z,51.72
2023-02-24T19:46:39.083Z,51.77
2023-02-24T19:49:05.933Z,51.84
2023-02-24T19:51:32.691Z,51.57
2023-02-24T19:54:03.101Z,51.52
2023-02-24T19:56:34.551Z,51.50
2023-02-24T19:59:01.806Z,51.68
2023-02-24T20:01:29.758Z,51.42
2023-02-24T20:03:58.427Z,51.74
2023-02-24T20:06:35.544Z,51.57
2023-02-24T20:09:05.901Z,51.44
2023-02-24T20:11:35.228Z,51.39
2023-02-24T20:14:01.837Z,51.19
2023-02-24T20:16:32.432Z,51.11
2023-02-24T20:18:59.907Z,51.06
2023-02-24T20:21:26.425Z,51.06
2023-02-24T20:23:53.127Z,50.88
2023-02-24T20:26:21.226Z,50.56
2023-02-24T20:28:47.848Z,50.62
2023-02-24T20:31:18.755Z,50.65
2023-02-24T20:33:46.401Z,50.27
2023-02-24T20:36:16.156Z,50.15
2023-02-24T20:38:42.560Z,50.48
2023-02-24T20:41:10.006Z,50.36
2023-02-24T20:43:36.960Z,50.33
2023-02-24T20:46:26.069Z,50.04
2023-02-24T20:48:56.135Z,50.75
2023-02-24T20:51:23.426Z,51.07
2023-02-24T20:53:57.303Z,50.86
2023-02-24T20:56:29.820Z,51.14
2023-02-24T20:59:05.380Z,51.08
2023-02-24T21:01:33.093Z,51.33
2023-02-24T21:04:00.129Z,51.04
2023-02-24T21:06:27.547Z,51.41
2023-02-24T21:08:54.150Z,51.51
2023-02-24T21:11:21.534Z,51.32
2023-02-24T21:13:50.031Z,51.53
2023-02-24T21:16:17.168Z,51.82
2023-02-24T21:18:46.215Z,51.37
2023-02-24T21:21:14.391Z,51.46
2023-02-24T21:23:42.238Z,51.58
2023-02-24T21:26:10.268Z,51.31
2023-02-24T21:28:37.481Z,51.07
2023-02-24T21:31:09.274Z,51.36
2023-02-24T21:33:35.990Z,51.32
2023-02-24T21:36:06.572Z,51.35
2023-02-24T21:38:34.393Z,51.03
2023-02-24T21:41:07.158Z,51.59
2023-02-24T21:43:33.892Z,51.04
2023-02-24T21:46:01.854Z,51.27
2023-02-24T21:48:28.529Z,51.47
2023-02-24T21:51:03.746Z,51.18
2023-02-24T21:53:33.167Z,51.25
2023-02-24T21:56:16.308Z,51.81
2023-02-24T21:59:04.164Z,52.08
2023-02-24T22:01:33.665Z,51.68
2023-02-24T22:04:02.859Z,51.60
2023-02-24T22:06:32.040Z,51.61
2023-02-24T22:09:00.392Z,51.47
2023-02-24T22:11:26.992Z,51.91
2023-02-24T22:13:53.361Z,51.85
2023-02-24T22:16:23.477Z,52.07
2023-02-24T22:18:51.582Z,51.80
2023-02-24T22:21:20.546Z,51.84
2023-02-24T22:23:48.494Z,52.02
2023-02-24T22:26:16.974Z,51.53
2023-02-24T22:28:44.126Z,51.58
2023-02-24T22:31:12.448Z,51.73
2023-02-24T22:33:40.981Z,51.14
2023-02-24T22:36:08.616Z,51.27
2023-02-24T22:38:37.032Z,50.83
2023-02-24T22:41:10.687Z,51.12
2023-02-24T22:43:37.204Z,51.27
2023-02-24T22:46:06.740Z,51.07
2023-02-24T22:48:35.056Z,51.07
2023-02-24T22:51:02.924Z,51.14
2023-02-24T22:53:31.020Z,51.33
2023-02-24T22:55:57.871Z,50.56
2023-02-24T22:58:24.920Z,50.81
2023-02-24T23:00:53.571Z,51.13
2023-02-24T23:03:25.777Z,50.76
2023-02-24T23:05:57.192Z,51.06
2023-02-24T23:08:24.358Z,51.20
2023-02-24T23:10:51.366Z,50.70
2023-02-24T23:13:18.085Z,51.14
2023-02-24T23:15:44.859Z,50.77
2023-02-24T23:18:11.685Z,51.42
2023-02-24T23:20:38.076Z,51.08
2023-02-24T23:23:04.658Z,50.80
2023-02-24T23:25:31.370Z,51.30
2023-02-24T23:27:57.824Z,51.04
2023-02-24T23:30:24.162Z,50.93
2023-02-24T23:32:50.584Z,50.98
2023-02-24T23:35:17.406Z,51.11
2023-02-24T23:37:43.744Z,50.90
2023-02-24T23:40:11.276Z,51.31
2023-02-24T23:42:38.048Z,51.18
2023-02-24T23:45:05.476Z,51.24
2023-02-24T23:47:32.028Z,51.18
2023-02-24T23:49:58.880Z,50.98
2023-02-24T23:52:25.209Z,51.13
2023-02-24T23:54:52.647Z,51.21
2023-02-24T23:57:20.455Z,50.92
2023-02-24T23:59:47.099Z,50.95
